sensor_id;sensor_type;location;lat;lon;timestamp;P1;durP1;ratioP1;P2;durP2;ratioP2
40701;SDS011;26387;50.114;8.662;2022-08-01T00:01:51;3.75;;;1.35;;
40701;SDS011;26387;50.114;8.662;2022-08-01T00:04:17;2.75;;;1.33;;
40701;SDS011;26387;50.114;8.662;2022-08-01T00:06:42;1.98;;;1.40;;
40701;SDS011;26387;50.114;8.662;2022-08-01T00:09:08;3.25;;;1.52;;
40701;SDS011;26387;50.114;8.662;2022-08-01T00:11:34;3.80;;;1.55;;
40701;SDS011;26387;50.114;8.662;2022-08-01T00:13:59;2.60;;;1.60;;
40701;SDS011;26387;50.114;8.662;2022-08-01T00:16:25;4.13;;;1.15;;
40701;SDS011;26387;50.114;8.662;2022-08-01T00:18:50;3.38;;;1.48;;
40701;SDS011;26387;50.114;8.662;2022-08-01T00:21:16;1.98;;;1.30;;
40701;SDS011;26387;50.114;8.662;2022-08-01T00:23:42;4.47;;;1.42;;
40701;SDS011;26387;50.114;8.662;2022-08-01T00:26:10;3.05;;;1.50;;
40701;SDS011;26387;50.114;8.662;2022-08-01T00:28:36;4.72;;;1.50;;
40701;SDS011;26387;50.114;8.662;2022-08-01T00:31:01;4.65;;;1.45;;
40701;SDS011;26387;50.114;8.662;2022-08-01T00:33:27;2.20;;;1.35;;
40701;SDS011;26387;50.114;8.662;2022-08-01T00:35:53;3.30;;;1.40;;
40701;SDS011;26387;50.114;8.662;2022-08-01T00:38:18;4.18;;;1.38;;
40701;SDS011;26387;50.114;8.662;2022-08-01T00:40:44;1.65;;;1.40;;
40701;SDS011;26387;50.114;8.662;2022-08-01T00:43:09;4.03;;;1.58;;
40701;SDS011;26387;50.114;8.662;2022-08-01T00:45:35;1.70;;;1.35;;
40701;SDS011;26387;50.114;8.662;2022-08-01T00:48:00;3.35;;;1.55;;
40701;SDS011;26387;50.114;8.662;2022-08-01T00:50:26;2.03;;;1.35;;
40701;SDS011;26387;50.114;8.662;2022-08-01T00:52:52;2.05;;;1.42;;
40701;SDS011;26387;50.114;8.662;2022-08-01T00:55:19;2.60;;;1.42;;
40701;SDS011;26387;50.114;8.662;2022-08-01T00:57:45;4.68;;;1.60;;
40701;SDS011;26387;50.114;8.662;2022-08-01T01:00:11;4.50;;;1.77;;
40701;SDS011;26387;50.114;8.662;2022-08-01T01:02:37;2.03;;;1.55;;
40701;SDS011;26387;50.114;8.662;2022-08-01T01:05:03;2.83;;;1.63;;
40701;SDS011;26387;50.114;8.662;2022-08-01T01:10:03;4.60;;;1.30;;
40701;SDS011;26387;50.114;8.662;2022-08-01T01:18:00;3.13;;;1.42;;
40701;SDS011;26387;50.114;8.662;2022-08-01T01:20:31;4.55;;;1.77;;
40701;SDS011;26387;50.114;8.662;2022-08-01T01:23:10;3.28;;;1.63;;
40701;SDS011;26387;50.114;8.662;2022-08-01T01:31:21;2.53;;;1.38;;
40701;SDS011;26387;50.114;8.662;2022-08-01T01:33:50;4.72;;;1.40;;
40701;SDS011;26387;50.114;8.662;2022-08-01T01:36:18;2.38;;;1.52;;
40701;SDS011;26387;50.114;8.662;2022-08-01T01:38:45;2.85;;;1.50;;
40701;SDS011;26387;50.114;8.662;2022-08-01T01:41:14;3.38;;;1.67;;
40701;SDS011;26387;50.114;8.662;2022-08-01T01:43:41;2.08;;;1.27;;
40701;SDS011;26387;50.114;8.662;2022-08-01T01:46:09;3.47;;;1.52;;
40701;SDS011;26387;50.114;8.662;2022-08-01T01:48:37;4.85;;;1.60;;
40701;SDS011;26387;50.114;8.662;2022-08-01T01:51:04;2.20;;;1.70;;
40701;SDS011;26387;50.114;8.662;2022-08-01T01:53:31;4.82;;;1.63;;
40701;SDS011;26387;50.114;8.662;2022-08-01T01:55:58;2.28;;;1.45;;
40701;SDS011;26387;50.114;8.662;2022-08-01T01:58:27;2.15;;;1.80;;
40701;SDS011;26387;50.114;8.662;2022-08-01T02:00:54;2.30;;;1.45;;
40701;SDS011;26387;50.114;8.662;2022-08-01T02:03:21;2.40;;;1.48;;
40701;SDS011;26387;50.114;8.662;2022-08-01T02:05:49;1.60;;;1.33;;
40701;SDS011;26387;50.114;8.662;2022-08-01T02:08:16;1.65;;;1.50;;
40701;SDS011;26387;50.114;8.662;2022-08-01T02:10:43;3.08;;;1.55;;
40701;SDS011;26387;50.114;8.662;2022-08-01T02:13:33;5.35;;;1.52;;
40701;SDS011;26387;50.114;8.662;2022-08-01T02:16:01;5.13;;;1.80;;
40701;SDS011;26387;50.114;8.662;2022-08-01T02:18:39;2.00;;;1.60;;
40701;SDS011;26387;50.114;8.662;2022-08-01T02:21:05;2.22;;;1.55;;
40701;SDS011;26387;50.114;8.662;2022-08-01T02:23:36;3.90;;;1.63;;
40701;SDS011;26387;50.114;8.662;2022-08-01T02:26:05;3.30;;;1.60;;
40701;SDS011;26387;50.114;8.662;2022-08-01T02:28:36;5.78;;;1.60;;
40701;SDS011;26387;50.114;8.662;2022-08-01T02:31:08;2.95;;;1.52;;
40701;SDS011;26387;50.114;8.662;2022-08-01T02:33:38;3.10;;;1.40;;
40701;SDS011;26387;50.114;8.662;2022-08-01T02:36:06;2.22;;;1.60;;
40701;SDS011;26387;50.114;8.662;2022-08-01T02:38:37;1.95;;;1.20;;
40701;SDS011;26387;50.114;8.662;2022-08-01T02:41:10;3.08;;;1.50;;
40701;SDS011;26387;50.114;8.662;2022-08-01T02:43:40;3.67;;;1.48;;
40701;SDS011;26387;50.114;8.662;2022-08-01T02:46:08;5.30;;;1.45;;
40701;SDS011;26387;50.114;8.662;2022-08-01T02:48:41;2.05;;;1.58;;
40701;SDS011;26387;50.114;8.662;2022-08-01T02:51:07;6.55;;;1.63;;
40701;SDS011;26387;50.114;8.662;2022-08-01T02:53:36;2.53;;;1.20;;
40701;SDS011;26387;50.114;8.662;2022-08-01T02:56:06;2.45;;;1.50;;
40701;SDS011;26387;50.114;8.662;2022-08-01T02:58:33;1.98;;;1.48;;
40701;SDS011;26387;50.114;8.662;2022-08-01T03:01:02;2.58;;;1.42;;
40701;SDS011;26387;50.114;8.662;2022-08-01T03:03:29;2.90;;;1.63;;
40701;SDS011;26387;50.114;8.662;2022-08-01T03:05:55;2.85;;;1.50;;
40701;SDS011;26387;50.114;8.662;2022-08-01T03:08:22;4.32;;;1.27;;
40701;SDS011;26387;50.114;8.662;2022-08-01T03:10:49;2.05;;;1.50;;
40701;SDS011;26387;50.114;8.662;2022-08-01T03:13:16;2.88;;;1.25;;
40701;SDS011;26387;50.114;8.662;2022-08-01T03:15:43;2.38;;;1.35;;
40701;SDS011;26387;50.114;8.662;2022-08-01T03:18:09;3.53;;;1.60;;
40701;SDS011;26387;50.114;8.662;2022-08-01T03:20:36;7.07;;;1.73;;
40701;SDS011;26387;50.114;8.662;2022-08-01T03:23:04;2.05;;;1.45;;
40701;SDS011;26387;50.114;8.662;2022-08-01T03:25:32;3.50;;;1.63;;
40701;SDS011;26387;50.114;8.662;2022-08-01T03:28:01;3.17;;;1.55;;
40701;SDS011;26387;50.114;8.662;2022-08-01T03:30:29;2.70;;;1.40;;
40701;SDS011;26387;50.114;8.662;2022-08-01T03:32:55;2.17;;;1.63;;
40701;SDS011;26387;50.114;8.662;2022-08-01T03:35:22;3.42;;;1.67;;
40701;SDS011;26387;50.114;8.662;2022-08-01T03:37:52;3.38;;;1.70;;
40701;SDS011;26387;50.114;8.662;2022-08-01T03:40:20;2.15;;;1.40;;
40701;SDS011;26387;50.114;8.662;2022-08-01T03:42:50;2.20;;;1.58;;
40701;SDS011;26387;50.114;8.662;2022-08-01T03:45:22;4.40;;;1.42;;
40701;SDS011;26387;50.114;8.662;2022-08-01T03:47:52;3.20;;;1.50;;
40701;SDS011;26387;50.114;8.662;2022-08-01T03:50:24;3.30;;;1.27;;
40701;SDS011;26387;50.114;8.662;2022-08-01T03:52:50;3.28;;;1.70;;
40701;SDS011;26387;50.114;8.662;2022-08-01T03:55:18;4.45;;;1.60;;
40701;SDS011;26387;50.114;8.662;2022-08-01T03:57:46;3.60;;;1.48;;
40701;SDS011;26387;50.114;8.662;2022-08-01T04:00:13;2.03;;;1.50;;
40701;SDS011;26387;50.114;8.662;2022-08-01T04:02:43;3.88;;;1.50;;
40701;SDS011;26387;50.114;8.662;2022-08-01T04:05:11;2.90;;;1.55;;
40701;SDS011;26387;50.114;8.662;2022-08-01T04:07:36;4.05;;;1.60;;
40701;SDS011;26387;50.114;8.662;2022-08-01T04:10:04;4.82;;;1.73;;
40701;SDS011;26387;50.114;8.662;2022-08-01T04:12:30;4.55;;;1.75;;
40701;SDS011;26387;50.114;8.662;2022-08-01T04:14:56;3.28;;;1.60;;
40701;SDS011;26387;50.114;8.662;2022-08-01T04:17:22;3.58;;;1.35;;
40701;SDS011;26387;50.114;8.662;2022-08-01T04:19:48;4.40;;;1.50;;
40701;SDS011;26387;50.114;8.662;2022-08-01T04:22:14;1.67;;;1.13;;
40701;SDS011;26387;50.114;8.662;2022-08-01T04:24:41;3.53;;;1.90;;
40701;SDS011;26387;50.114;8.662;2022-08-01T04:29:41;2.20;;;1.55;;
40701;SDS011;26387;50.114;8.662;2022-08-01T04:32:08;2.55;;;1.75;;
40701;SDS011;26387;50.114;8.662;2022-08-01T04:34:38;1.52;;;1.40;;
40701;SDS011;26387;50.114;8.662;2022-08-01T04:37:06;4.88;;;1.73;;
40701;SDS011;26387;50.114;8.662;2022-08-01T04:39:34;3.00;;;1.50;;
40701;SDS011;26387;50.114;8.662;2022-08-01T04:42:02;3.22;;;1.73;;
40701;SDS011;26387;50.114;8.662;2022-08-01T04:44:30;3.78;;;1.70;;
40701;SDS011;26387;50.114;8.662;2022-08-01T04:46:58;2.25;;;1.40;;
40701;SDS011;26387;50.114;8.662;2022-08-01T04:49:24;3.03;;;1.48;;
40701;SDS011;26387;50.114;8.662;2022-08-01T04:51:51;2.40;;;1.60;;
40701;SDS011;26387;50.114;8.662;2022-08-01T04:54:25;4.13;;;1.60;;
40701;SDS011;26387;50.114;8.662;2022-08-01T04:56:55;4.10;;;1.73;;
40701;SDS011;26387;50.114;8.662;2022-08-01T04:59:25;3.80;;;1.75;;
40701;SDS011;26387;50.114;8.662;2022-08-01T05:02:10;4.38;;;1.52;;
40701;SDS011;26387;50.114;8.662;2022-08-01T05:04:38;4.45;;;1.60;;
40701;SDS011;26387;50.114;8.662;2022-08-01T05:07:04;3.25;;;1.73;;
40701;SDS011;26387;50.114;8.662;2022-08-01T05:09:31;2.05;;;1.35;;
40701;SDS011;26387;50.114;8.662;2022-08-01T05:11:57;2.42;;;1.77;;
40701;SDS011;26387;50.114;8.662;2022-08-01T05:14:28;5.53;;;2.10;;
40701;SDS011;26387;50.114;8.662;2022-08-01T05:16:56;3.28;;;1.85;;
40701;SDS011;26387;50.114;8.662;2022-08-01T05:19:23;5.63;;;2.08;;
40701;SDS011;26387;50.114;8.662;2022-08-01T05:21:48;3.30;;;1.90;;
40701;SDS011;26387;50.114;8.662;2022-08-01T05:24:14;3.90;;;1.80;;
40701;SDS011;26387;50.114;8.662;2022-08-01T05:26:39;6.97;;;1.95;;
40701;SDS011;26387;50.114;8.662;2022-08-01T05:29:05;4.22;;;2.13;;
40701;SDS011;26387;50.114;8.662;2022-08-01T05:31:31;4.07;;;2.05;;
40701;SDS011;26387;50.114;8.662;2022-08-01T05:34:01;6.22;;;1.92;;
40701;SDS011;26387;50.114;8.662;2022-08-01T05:36:27;2.47;;;1.70;;
40701;SDS011;26387;50.114;8.662;2022-08-01T05:38:53;1.90;;;1.55;;
40701;SDS011;26387;50.114;8.662;2022-08-01T05:41:18;11.52;;;2.75;;
40701;SDS011;26387;50.114;8.662;2022-08-01T05:43:44;5.45;;;2.00;;
40701;SDS011;26387;50.114;8.662;2022-08-01T05:46:10;3.08;;;1.80;;
40701;SDS011;26387;50.114;8.662;2022-08-01T05:48:35;6.10;;;2.40;;
40701;SDS011;26387;50.114;8.662;2022-08-01T05:51:01;3.55;;;2.03;;
40701;SDS011;26387;50.114;8.662;2022-08-01T05:53:27;5.50;;;2.10;;
40701;SDS011;26387;50.114;8.662;2022-08-01T05:55:52;3.60;;;2.20;;
40701;SDS011;26387;50.114;8.662;2022-08-01T05:58:18;6.00;;;2.08;;
40701;SDS011;26387;50.114;8.662;2022-08-01T06:00:44;4.43;;;2.20;;
40701;SDS011;26387;50.114;8.662;2022-08-01T06:03:09;2.67;;;1.90;;
40701;SDS011;26387;50.114;8.662;2022-08-01T06:05:36;5.70;;;2.30;;
40701;SDS011;26387;50.114;8.662;2022-08-01T06:08:02;5.63;;;1.95;;
40701;SDS011;26387;50.114;8.662;2022-08-01T06:10:28;5.88;;;2.47;;
40701;SDS011;26387;50.114;8.662;2022-08-01T06:12:54;5.45;;;2.20;;
40701;SDS011;26387;50.114;8.662;2022-08-01T06:15:20;3.58;;;2.28;;
40701;SDS011;26387;50.114;8.662;2022-08-01T06:17:45;4.25;;;2.40;;
40701;SDS011;26387;50.114;8.662;2022-08-01T06:20:11;6.43;;;2.20;;
40701;SDS011;26387;50.114;8.662;2022-08-01T06:22:37;7.10;;;2.08;;
40701;SDS011;26387;50.114;8.662;2022-08-01T06:25:03;4.78;;;2.20;;
40701;SDS011;26387;50.114;8.662;2022-08-01T06:27:29;7.40;;;2.70;;
40701;SDS011;26387;50.114;8.662;2022-08-01T06:29:54;4.63;;;2.35;;
40701;SDS011;26387;50.114;8.662;2022-08-01T06:32:21;6.15;;;2.35;;
40701;SDS011;26387;50.114;8.662;2022-08-01T06:34:47;3.22;;;2.40;;
40701;SDS011;26387;50.114;8.662;2022-08-01T06:37:13;3.97;;;2.45;;
40701;SDS011;26387;50.114;8.662;2022-08-01T06:39:39;4.47;;;2.63;;
40701;SDS011;26387;50.114;8.662;2022-08-01T06:42:05;6.55;;;2.75;;
40701;SDS011;26387;50.114;8.662;2022-08-01T06:44:30;5.28;;;3.03;;
40701;SDS011;26387;50.114;8.662;2022-08-01T06:46:56;3.50;;;3.03;;
40701;SDS011;26387;50.114;8.662;2022-08-01T06:49:23;6.88;;;3.22;;
40701;SDS011;26387;50.114;8.662;2022-08-01T06:51:49;6.45;;;3.13;;
40701;SDS011;26387;50.114;8.662;2022-08-01T06:54:15;6.32;;;3.05;;
40701;SDS011;26387;50.114;8.662;2022-08-01T06:56:41;3.67;;;2.90;;
40701;SDS011;26387;50.114;8.662;2022-08-01T06:59:07;10.38;;;3.05;;
40701;SDS011;26387;50.114;8.662;2022-08-01T07:01:32;3.03;;;2.65;;
40701;SDS011;26387;50.114;8.662;2022-08-01T07:03:58;4.53;;;3.25;;
40701;SDS011;26387;50.114;8.662;2022-08-01T07:06:24;4.43;;;3.17;;
40701;SDS011;26387;50.114;8.662;2022-08-01T07:08:50;5.60;;;3.30;;
40701;SDS011;26387;50.114;8.662;2022-08-01T07:11:17;4.68;;;3.30;;
40701;SDS011;26387;50.114;8.662;2022-08-01T07:13:43;7.85;;;2.90;;
40701;SDS011;26387;50.114;8.662;2022-08-01T07:16:10;4.70;;;3.30;;
40701;SDS011;26387;50.114;8.662;2022-08-01T07:18:36;4.03;;;3.28;;
40701;SDS011;26387;50.114;8.662;2022-08-01T07:21:02;6.80;;;3.90;;
40701;SDS011;26387;50.114;8.662;2022-08-01T07:23:28;5.32;;;3.72;;
40701;SDS011;26387;50.114;8.662;2022-08-01T07:25:53;4.22;;;3.83;;
40701;SDS011;26387;50.114;8.662;2022-08-01T07:28:19;5.57;;;3.80;;
40701;SDS011;26387;50.114;8.662;2022-08-01T07:30:45;4.85;;;3.83;;
40701;SDS011;26387;50.114;8.662;2022-08-01T07:33:10;6.00;;;3.83;;
40701;SDS011;26387;50.114;8.662;2022-08-01T07:35:36;3.90;;;3.50;;
40701;SDS011;26387;50.114;8.662;2022-08-01T07:38:03;4.10;;;3.70;;
40701;SDS011;26387;50.114;8.662;2022-08-01T07:40:30;4.57;;;3.63;;
40701;SDS011;26387;50.114;8.662;2022-08-01T07:42:55;4.10;;;3.38;;
40701;SDS011;26387;50.114;8.662;2022-08-01T07:45:21;6.72;;;4.38;;
40701;SDS011;26387;50.114;8.662;2022-08-01T07:47:47;5.78;;;3.78;;
40701;SDS011;26387;50.114;8.662;2022-08-01T07:50:14;6.10;;;4.18;;
40701;SDS011;26387;50.114;8.662;2022-08-01T07:52:41;4.13;;;3.72;;
40701;SDS011;26387;50.114;8.662;2022-08-01T07:55:08;5.30;;;4.53;;
40701;SDS011;26387;50.114;8.662;2022-08-01T07:57:34;6.85;;;4.20;;
40701;SDS011;26387;50.114;8.662;2022-08-01T08:00:00;6.95;;;4.78;;
40701;SDS011;26387;50.114;8.662;2022-08-01T08:02:28;6.80;;;4.50;;
40701;SDS011;26387;50.114;8.662;2022-08-01T08:04:53;5.43;;;4.43;;
40701;SDS011;26387;50.114;8.662;2022-08-01T08:07:19;6.40;;;4.65;;
40701;SDS011;26387;50.114;8.662;2022-08-01T08:09:45;8.40;;;4.65;;
40701;SDS011;26387;50.114;8.662;2022-08-01T08:12:10;7.15;;;4.63;;
40701;SDS011;26387;50.114;8.662;2022-08-01T08:14:37;9.30;;;4.90;;
40701;SDS011;26387;50.114;8.662;2022-08-01T08:17:03;6.65;;;5.20;;
40701;SDS011;26387;50.114;8.662;2022-08-01T08:19:29;5.47;;;4.38;;
40701;SDS011;26387;50.114;8.662;2022-08-01T08:21:57;6.38;;;4.05;;
40701;SDS011;26387;50.114;8.662;2022-08-01T08:24:23;8.98;;;5.28;;
40701;SDS011;26387;50.114;8.662;2022-08-01T08:26:49;10.35;;;4.72;;
40701;SDS011;26387;50.114;8.662;2022-08-01T08:29:18;6.45;;;4.20;;
40701;SDS011;26387;50.114;8.662;2022-08-01T08:31:44;7.40;;;5.25;;
40701;SDS011;26387;50.114;8.662;2022-08-01T08:34:10;5.18;;;4.45;;
40701;SDS011;26387;50.114;8.662;2022-08-01T08:36:36;6.60;;;5.30;;
40701;SDS011;26387;50.114;8.662;2022-08-01T08:39:02;6.72;;;4.75;;
40701;SDS011;26387;50.114;8.662;2022-08-01T08:41:29;6.15;;;4.85;;
40701;SDS011;26387;50.114;8.662;2022-08-01T08:43:55;5.55;;;4.82;;
40701;SDS011;26387;50.114;8.662;2022-08-01T08:46:24;6.07;;;4.95;;
40701;SDS011;26387;50.114;8.662;2022-08-01T08:48:51;7.40;;;4.90;;
40701;SDS011;26387;50.114;8.662;2022-08-01T08:51:17;6.80;;;4.70;;
40701;SDS011;26387;50.114;8.662;2022-08-01T08:53:44;9.13;;;5.10;;
40701;SDS011;26387;50.114;8.662;2022-08-01T08:56:12;5.65;;;4.80;;
40701;SDS011;26387;50.114;8.662;2022-08-01T08:58:39;5.57;;;4.78;;
40701;SDS011;26387;50.114;8.662;2022-08-01T09:01:07;11.10;;;5.07;;
40701;SDS011;26387;50.114;8.662;2022-08-01T09:03:34;7.57;;;4.82;;
40701;SDS011;26387;50.114;8.662;2022-08-01T09:05:59;5.63;;;4.85;;
40701;SDS011;26387;50.114;8.662;2022-08-01T09:08:25;7.97;;;5.30;;
40701;SDS011;26387;50.114;8.662;2022-08-01T09:10:51;6.78;;;5.15;;
40701;SDS011;26387;50.114;8.662;2022-08-01T09:13:16;7.28;;;5.75;;
40701;SDS011;26387;50.114;8.662;2022-08-01T09:18:08;8.57;;;5.55;;
40701;SDS011;26387;50.114;8.662;2022-08-01T09:20:50;8.90;;;5.13;;
40701;SDS011;26387;50.114;8.662;2022-08-01T09:26:04;6.10;;;5.50;;
40701;SDS011;26387;50.114;8.662;2022-08-01T09:28:37;8.48;;;5.50;;
40701;SDS011;26387;50.114;8.662;2022-08-01T09:31:11;6.07;;;4.82;;
40701;SDS011;26387;50.114;8.662;2022-08-01T09:36:12;5.97;;;5.20;;
40701;SDS011;26387;50.114;8.662;2022-08-01T09:38:38;6.53;;;5.32;;
40701;SDS011;26387;50.114;8.662;2022-08-01T09:41:03;6.65;;;5.68;;
40701;SDS011;26387;50.114;8.662;2022-08-01T09:43:30;6.25;;;4.78;;
40701;SDS011;26387;50.114;8.662;2022-08-01T09:45:56;6.13;;;4.70;;
40701;SDS011;26387;50.114;8.662;2022-08-01T09:48:22;6.93;;;4.82;;
40701;SDS011;26387;50.114;8.662;2022-08-01T09:50:51;6.93;;;5.28;;
40701;SDS011;26387;50.114;8.662;2022-08-01T09:53:17;7.82;;;4.90;;
40701;SDS011;26387;50.114;8.662;2022-08-01T09:55:44;7.05;;;5.10;;
40701;SDS011;26387;50.114;8.662;2022-08-01T09:58:10;6.20;;;4.80;;
40701;SDS011;26387;50.114;8.662;2022-08-01T10:00:37;6.80;;;4.80;;
40701;SDS011;26387;50.114;8.662;2022-08-01T10:03:23;7.88;;;4.65;;
40701;SDS011;26387;50.114;8.662;2022-08-01T10:05:51;5.82;;;4.45;;
40701;SDS011;26387;50.114;8.662;2022-08-01T10:08:21;7.80;;;5.25;;
40701;SDS011;26387;50.114;8.662;2022-08-01T10:13:38;8.38;;;5.18;;
40701;SDS011;26387;50.114;8.662;2022-08-01T10:16:05;6.35;;;5.18;;
40701;SDS011;26387;50.114;8.662;2022-08-01T10:18:34;5.35;;;4.32;;
40701;SDS011;26387;50.114;8.662;2022-08-01T10:21:02;4.82;;;4.32;;
40701;SDS011;26387;50.114;8.662;2022-08-01T10:23:35;6.10;;;4.82;;
40701;SDS011;26387;50.114;8.662;2022-08-01T10:26:02;7.55;;;4.45;;
40701;SDS011;26387;50.114;8.662;2022-08-01T10:28:30;6.07;;;3.90;;
40701;SDS011;26387;50.114;8.662;2022-08-01T10:30:57;6.90;;;4.30;;
40701;SDS011;26387;50.114;8.662;2022-08-01T10:33:23;4.30;;;3.70;;
40701;SDS011;26387;50.114;8.662;2022-08-01T10:35:50;6.20;;;4.15;;
40701;SDS011;26387;50.114;8.662;2022-08-01T10:38:16;4.50;;;3.78;;
40701;SDS011;26387;50.114;8.662;2022-08-01T10:40:42;4.93;;;3.78;;
40701;SDS011;26387;50.114;8.662;2022-08-01T10:43:12;6.72;;;3.85;;
40701;SDS011;26387;50.114;8.662;2022-08-01T10:45:39;4.43;;;3.88;;
40701;SDS011;26387;50.114;8.662;2022-08-01T10:49:10;5.88;;;4.07;;
40701;SDS011;26387;50.114;8.662;2022-08-01T10:51:08;6.00;;;3.80;;
40701;SDS011;26387;50.114;8.662;2022-08-01T10:53:34;6.13;;;4.03;;
40701;SDS011;26387;50.114;8.662;2022-08-01T10:56:00;3.88;;;3.30;;
40701;SDS011;26387;50.114;8.662;2022-08-01T10:58:30;6.15;;;4.03;;
40701;SDS011;26387;50.114;8.662;2022-08-01T11:01:22;4.00;;;3.60;;
40701;SDS011;26387;50.114;8.662;2022-08-01T11:06:28;5.10;;;3.45;;
40701;SDS011;26387;50.114;8.662;2022-08-01T11:17:38;7.60;;;3.60;;
40701;SDS011;26387;50.114;8.662;2022-08-01T11:20:28;4.13;;;3.65;;
40701;SDS011;26387;50.114;8.662;2022-08-01T11:25:26;8.02;;;3.97;;
40701;SDS011;26387;50.114;8.662;2022-08-01T11:30:39;4.90;;;3.72;;
40701;SDS011;26387;50.114;8.662;2022-08-01T11:33:09;5.10;;;4.03;;
40701;SDS011;26387;50.114;8.662;2022-08-01T11:35:35;3.78;;;3.42;;
40701;SDS011;26387;50.114;8.662;2022-08-01T11:41:10;4.43;;;3.70;;
40701;SDS011;26387;50.114;8.662;2022-08-01T11:43:56;6.15;;;4.00;;
40701;SDS011;26387;50.114;8.662;2022-08-01T11:54:29;3.67;;;3.38;;
40701;SDS011;26387;50.114;8.662;2022-08-01T11:57:17;4.90;;;3.70;;
40701;SDS011;26387;50.114;8.662;2022-08-01T11:59:45;3.55;;;3.25;;
40701;SDS011;26387;50.114;8.662;2022-08-01T12:04:54;4.88;;;3.13;;
40701;SDS011;26387;50.114;8.662;2022-08-01T12:07:25;5.10;;;3.28;;
40701;SDS011;26387;50.114;8.662;2022-08-01T12:10:15;7.57;;;3.20;;
40701;SDS011;26387;50.114;8.662;2022-08-01T12:15:12;6.53;;;2.75;;
40701;SDS011;26387;50.114;8.662;2022-08-01T12:17:38;6.53;;;2.70;;
40701;SDS011;26387;50.114;8.662;2022-08-01T12:20:10;5.35;;;2.60;;
40701;SDS011;26387;50.114;8.662;2022-08-01T12:22:37;4.88;;;2.55;;
40701;SDS011;26387;50.114;8.662;2022-08-01T12:25:09;4.15;;;3.00;;
40701;SDS011;26387;50.114;8.662;2022-08-01T12:27:36;3.55;;;2.10;;
40701;SDS011;26387;50.114;8.662;2022-08-01T12:30:06;7.30;;;2.75;;
40701;SDS011;26387;50.114;8.662;2022-08-01T12:32:35;3.63;;;2.63;;
40701;SDS011;26387;50.114;8.662;2022-08-01T12:35:09;4.35;;;2.55;;
40701;SDS011;26387;50.114;8.662;2022-08-01T12:37:40;3.13;;;2.75;;
40701;SDS011;26387;50.114;8.662;2022-08-01T12:40:12;5.10;;;2.83;;
40701;SDS011;26387;50.114;8.662;2022-08-01T12:42:43;3.33;;;2.50;;
40701;SDS011;26387;50.114;8.662;2022-08-01T12:45:11;3.13;;;2.35;;
40701;SDS011;26387;50.114;8.662;2022-08-01T12:47:39;3.63;;;2.25;;
40701;SDS011;26387;50.114;8.662;2022-08-01T12:50:05;5.03;;;3.55;;
40701;SDS011;26387;50.114;8.662;2022-08-01T12:52:42;3.55;;;2.35;;
40701;SDS011;26387;50.114;8.662;2022-08-01T12:55:18;3.70;;;2.63;;
40701;SDS011;26387;50.114;8.662;2022-08-01T12:57:46;4.43;;;2.38;;
40701;SDS011;26387;50.114;8.662;2022-08-01T13:00:27;3.45;;;2.30;;
40701;SDS011;26387;50.114;8.662;2022-08-01T13:03:27;4.80;;;2.60;;
40701;SDS011;26387;50.114;8.662;2022-08-01T13:05:58;5.57;;;2.50;;
40701;SDS011;26387;50.114;8.662;2022-08-01T13:08:31;3.10;;;2.67;;
40701;SDS011;26387;50.114;8.662;2022-08-01T13:11:01;4.13;;;2.20;;
40701;SDS011;26387;50.114;8.662;2022-08-01T13:16:12;4.93;;;2.42;;
40701;SDS011;26387;50.114;8.662;2022-08-01T13:18:37;5.20;;;2.47;;
40701;SDS011;26387;50.114;8.662;2022-08-01T13:21:07;3.40;;;2.45;;
40701;SDS011;26387;50.114;8.662;2022-08-01T13:24:03;5.53;;;2.60;;
40701;SDS011;26387;50.114;8.662;2022-08-01T13:29:15;5.15;;;2.00;;
40701;SDS011;26387;50.114;8.662;2022-08-01T13:31:46;4.70;;;2.42;;
40701;SDS011;26387;50.114;8.662;2022-08-01T13:34:12;3.50;;;2.30;;
40701;SDS011;26387;50.114;8.662;2022-08-01T13:36:38;4.97;;;2.35;;
40701;SDS011;26387;50.114;8.662;2022-08-01T13:39:05;2.70;;;2.30;;
40701;SDS011;26387;50.114;8.662;2022-08-01T13:41:50;5.05;;;2.40;;
40701;SDS011;26387;50.114;8.662;2022-08-01T13:44:16;3.63;;;2.50;;
40701;SDS011;26387;50.114;8.662;2022-08-01T13:46:43;2.58;;;2.38;;
40701;SDS011;26387;50.114;8.662;2022-08-01T13:49:10;2.17;;;1.98;;
40701;SDS011;26387;50.114;8.662;2022-08-01T13:51:37;6.43;;;2.47;;
40701;SDS011;26387;50.114;8.662;2022-08-01T13:54:03;9.18;;;2.75;;
40701;SDS011;26387;50.114;8.662;2022-08-01T13:56:29;5.05;;;2.58;;
40701;SDS011;26387;50.114;8.662;2022-08-01T13:58:55;4.85;;;2.78;;
40701;SDS011;26387;50.114;8.662;2022-08-01T14:01:21;4.55;;;2.50;;
40701;SDS011;26387;50.114;8.662;2022-08-01T14:03:47;3.72;;;2.47;;
40701;SDS011;26387;50.114;8.662;2022-08-01T14:06:15;4.50;;;2.95;;
40701;SDS011;26387;50.114;8.662;2022-08-01T14:08:41;3.13;;;2.47;;
40701;SDS011;26387;50.114;8.662;2022-08-01T14:11:07;7.25;;;2.60;;
40701;SDS011;26387;50.114;8.662;2022-08-01T14:13:33;2.85;;;2.50;;
40701;SDS011;26387;50.114;8.662;2022-08-01T14:15:59;5.85;;;2.88;;
40701;SDS011;26387;50.114;8.662;2022-08-01T14:18:25;6.18;;;2.80;;
40701;SDS011;26387;50.114;8.662;2022-08-01T14:20:51;4.20;;;2.83;;
40701;SDS011;26387;50.114;8.662;2022-08-01T14:23:17;6.63;;;2.78;;
40701;SDS011;26387;50.114;8.662;2022-08-01T14:25:42;4.47;;;3.08;;
40701;SDS011;26387;50.114;8.662;2022-08-01T14:28:08;3.55;;;2.80;;
40701;SDS011;26387;50.114;8.662;2022-08-01T14:30:34;3.83;;;2.45;;
40701;SDS011;26387;50.114;8.662;2022-08-01T14:33:00;5.18;;;2.60;;
40701;SDS011;26387;50.114;8.662;2022-08-01T14:35:25;3.40;;;2.60;;
40701;SDS011;26387;50.114;8.662;2022-08-01T14:37:51;3.10;;;2.35;;
40701;SDS011;26387;50.114;8.662;2022-08-01T14:40:17;3.20;;;2.75;;
40701;SDS011;26387;50.114;8.662;2022-08-01T14:42:43;5.78;;;2.90;;
40701;SDS011;26387;50.114;8.662;2022-08-01T14:45:12;4.05;;;2.20;;
40701;SDS011;26387;50.114;8.662;2022-08-01T14:47:39;3.22;;;2.30;;
40701;SDS011;26387;50.114;8.662;2022-08-01T14:50:07;4.45;;;2.70;;
40701;SDS011;26387;50.114;8.662;2022-08-01T14:52:35;4.00;;;3.00;;
40701;SDS011;26387;50.114;8.662;2022-08-01T14:55:01;3.85;;;2.50;;
40701;SDS011;26387;50.114;8.662;2022-08-01T14:57:28;2.63;;;2.42;;
40701;SDS011;26387;50.114;8.662;2022-08-01T14:59:54;2.83;;;2.50;;
40701;SDS011;26387;50.114;8.662;2022-08-01T15:02:19;3.22;;;2.60;;
40701;SDS011;26387;50.114;8.662;2022-08-01T15:04:48;4.75;;;2.88;;
40701;SDS011;26387;50.114;8.662;2022-08-01T15:07:14;3.03;;;2.35;;
40701;SDS011;26387;50.114;8.662;2022-08-01T15:09:42;3.88;;;2.70;;
40701;SDS011;26387;50.114;8.662;2022-08-01T15:12:08;4.97;;;2.65;;
40701;SDS011;26387;50.114;8.662;2022-08-01T15:14:35;3.20;;;2.90;;
40701;SDS011;26387;50.114;8.662;2022-08-01T15:17:20;4.13;;;3.00;;
40701;SDS011;26387;50.114;8.662;2022-08-01T15:19:51;5.15;;;2.88;;
40701;SDS011;26387;50.114;8.662;2022-08-01T15:22:18;3.75;;;2.75;;
40701;SDS011;26387;50.114;8.662;2022-08-01T15:24:46;5.35;;;3.40;;
40701;SDS011;26387;50.114;8.662;2022-08-01T15:27:12;5.82;;;3.97;;
40701;SDS011;26387;50.114;8.662;2022-08-01T15:29:38;4.65;;;3.25;;
40701;SDS011;26387;50.114;8.662;2022-08-01T15:32:04;3.80;;;2.90;;
40701;SDS011;26387;50.114;8.662;2022-08-01T15:34:31;4.78;;;2.95;;
40701;SDS011;26387;50.114;8.662;2022-08-01T15:37:01;3.65;;;2.85;;
40701;SDS011;26387;50.114;8.662;2022-08-01T15:39:27;4.40;;;2.92;;
40701;SDS011;26387;50.114;8.662;2022-08-01T15:41:53;4.70;;;2.95;;
40701;SDS011;26387;50.114;8.662;2022-08-01T15:44:19;4.47;;;2.85;;
40701;SDS011;26387;50.114;8.662;2022-08-01T15:46:47;5.07;;;3.33;;
40701;SDS011;26387;50.114;8.662;2022-08-01T15:49:13;4.00;;;2.90;;
40701;SDS011;26387;50.114;8.662;2022-08-01T15:51:39;6.72;;;2.95;;
40701;SDS011;26387;50.114;8.662;2022-08-01T15:54:06;5.35;;;3.25;;
40701;SDS011;26387;50.114;8.662;2022-08-01T15:56:32;4.60;;;3.35;;
40701;SDS011;26387;50.114;8.662;2022-08-01T15:58:59;3.33;;;2.67;;